createdAt,value
2023-04-20T00:00:52.307Z,99938.53
2023-04-20T00:02:55.166Z,99938.53
2023-04-20T00:04:57.820Z,99941.63
2023-04-20T00:07:00.552Z,99941.09
2023-04-20T00:09:04.791Z,99939.47
2023-04-20T00:11:08.954Z,99942.25
2023-04-20T00:13:11.720Z,99928.34
2023-04-20T00:15:14.384Z,99933.06
2023-04-20T00:17:17.273Z,99935.25
2023-04-20T00:19:21.286Z,99937.16
2023-04-20T00:21:24.403Z,99932.78
2023-04-20T00:23:27.035Z,99932.78
2023-04-20T00:25:30.673Z,99926.81
2023-04-20T00:27:33.347Z,99928.97
2023-04-20T00:29:36.033Z,99925.44
2023-04-20T00:31:38.619Z,99925.44
2023-04-20T00:33:41.306Z,99909.06
2023-04-20T00:35:43.914Z,99918.09
2023-04-20T00:37:46.579Z,99918.38
2023-04-20T00:39:49.373Z,99909.66
2023-04-20T00:41:52.124Z,99911.31
2023-04-20T00:43:54.908Z,99914.03
2023-04-20T00:45:57.859Z,99917.09
2023-04-20T00:48:00.801Z,99910.56
2023-04-20T00:50:04.138Z,99914.66
2023-04-20T00:52:09.211Z,99914.13
2023-04-20T00:54:11.820Z,99907.59
2023-04-20T00:56:16.673Z,99910.34
2023-04-20T00:58:19.436Z,99903.53
2023-04-20T01:00:22.601Z,99906.84
2023-04-20T01:02:25.317Z,99900.03
2023-04-20T01:04:29.323Z,99904.69
2023-04-20T01:06:32.001Z,99901.44
2023-04-20T01:08:34.719Z,99907.97
2023-04-20T01:10:37.438Z,99895.44
2023-04-20T01:12:40.465Z,99899.00
2023-04-20T01:14:43.044Z,99903.34
2023-04-20T01:16:47.420Z,99904.47
2023-04-20T01:18:51.302Z,99903.13
2023-04-20T01:20:53.964Z,99906.41
2023-04-20T01:22:56.700Z,99900.13
2023-04-20T01:24:59.285Z,99901.25
2023-04-20T01:27:01.852Z,99902.63
2023-04-20T01:29:05.043Z,99903.69
2023-04-20T01:31:09.100Z,99906.16
2023-04-20T01:33:11.788Z,99906.97
2023-04-20T01:35:15.989Z,99904.25
2023-04-20T01:37:18.614Z,99902.31
2023-04-20T01:39:21.329Z,99899.31
2023-04-20T01:41:24.762Z,99903.97
2023-04-20T01:43:28.718Z,99894.97
2023-04-20T01:45:31.386Z,99895.53
2023-04-20T01:47:35.586Z,99888.19
2023-04-20T01:49:38.220Z,99881.66
2023-04-20T01:51:40.855Z,99892.59
2023-04-20T01:53:43.439Z,99889.31
2023-04-20T01:55:46.108Z,99886.88
2023-04-20T01:57:48.834Z,99884.38
2023-04-20T01:59:51.505Z,99881.41
2023-04-20T02:01:54.176Z,99883.88
2023-04-20T02:03:56.961Z,99886.03
2023-04-20T02:05:59.642Z,99874.56
2023-04-20T02:08:02.175Z,99880.56
2023-04-20T02:10:05.668Z,99878.91
2023-04-20T02:12:08.517Z,99873.47
2023-04-20T02:14:11.180Z,99874.81
2023-04-20T02:16:14.727Z,99870.69
2023-04-20T02:18:17.581Z,99871.75
2023-04-20T02:20:20.490Z,99873.88
2023-04-20T02:22:23.136Z,99874.94
2023-04-20T02:24:25.881Z,99872.22
2023-04-20T02:26:28.430Z,99867.81
2023-04-20T02:28:30.999Z,99871.59
2023-04-20T02:30:33.643Z,99874.03
2023-04-20T02:32:36.693Z,99872.97
2023-04-20T02:34:39.332Z,99876.50
2023-04-20T02:36:42.035Z,99867.50
2023-04-20T02:38:44.740Z,99865.28
2023-04-20T02:40:47.459Z,99871.81
2023-04-20T02:42:50.088Z,99875.34
2023-04-20T02:44:53.028Z,99873.16
2023-04-20T02:46:56.040Z,99864.44
2023-04-20T02:48:58.810Z,99858.16
2023-04-20T02:51:01.361Z,99859.22
2023-04-20T02:53:04.415Z,99864.41
2023-04-20T02:55:07.440Z,99866.03
2023-04-20T02:57:11.805Z,99860.50
2023-04-20T02:59:14.403Z,99855.06
2023-04-20T03:01:16.923Z,99867.25
2023-04-20T03:03:21.431Z,99870.53
2023-04-20T03:05:24.370Z,99871.31
2023-04-20T03:07:27.196Z,99870.44
2023-04-20T03:09:29.742Z,99863.06
2023-04-20T03:11:32.523Z,99867.09
2023-04-20T03:13:35.241Z,99876.63
2023-04-20T03:15:37.870Z,99875.00
2023-04-20T03:17:40.519Z,99877.19
2023-04-20T03:19:43.161Z,99882.34
2023-04-20T03:21:45.984Z,99880.34
2023-04-20T03:23:49.590Z,99878.16
2023-04-20T03:25:52.338Z,99880.88
2023-04-20T03:27:54.918Z,99874.31
2023-04-20T03:29:57.818Z,99883.81
2023-04-20T03:32:00.416Z,99877.75
2023-04-20T03:34:03.108Z,99871.16
2023-04-20T03:36:06.541Z,99874.41
2023-04-20T03:38:09.188Z,99872.16
2023-04-20T03:40:12.399Z,99877.59
2023-04-20T03:42:15.011Z,99870.44
2023-04-20T03:44:17.677Z,99875.81
2023-04-20T03:46:22.089Z,99873.59
2023-04-20T03:48:25.961Z,99859.53
2023-04-20T03:50:28.754Z,99856.44
2023-04-20T03:52:31.516Z,99855.28
2023-04-20T03:54:34.181Z,99849.47
2023-04-20T03:56:37.204Z,99858.75
2023-04-20T03:58:39.864Z,99853.75
2023-04-20T04:00:42.657Z,99854.41
2023-04-20T04:02:46.097Z,99859.13
2023-04-20T04:04:49.111Z,99860.53
2023-04-20T04:06:52.152Z,99851.59
2023-04-20T04:08:54.828Z,99854.03
2023-04-20T04:10:57.595Z,99854.59
2023-04-20T04:13:00.688Z,99841.09
2023-04-20T04:15:03.756Z,99835.03
2023-04-20T04:17:08.381Z,99842.19
2023-04-20T04:19:11.945Z,99850.72
2023-04-20T04:21:14.603Z,99848.88
2023-04-20T04:23:17.377Z,99828.47
2023-04-20T04:25:20.434Z,99839.75
2023-04-20T04:27:23.639Z,99844.19
2023-04-20T04:29:26.281Z,99841.34
2023-04-20T04:31:29.311Z,99840.22
2023-04-20T04:33:34.327Z,99826.41
2023-04-20T04:35:37.103Z,99830.53
2023-04-20T04:37:41.666Z,99840.69
2023-04-20T04:39:44.742Z,99833.84
2023-04-20T04:41:47.501Z,99828.22
2023-04-20T04:43:50.197Z,99822.19
2023-04-20T04:45:53.747Z,99831.31
2023-04-20T04:47:57.370Z,99821.63
2023-04-20T04:50:02.054Z,99829.13
2023-04-20T04:52:10.330Z,99828.53
2023-04-20T04:54:13.136Z,99821.59
2023-04-20T04:56:15.975Z,99816.66
2023-04-20T04:58:18.540Z,99817.84
2023-04-20T05:00:22.477Z,99816.13
2023-04-20T05:02:25.367Z,99817.28
2023-04-20T05:04:28.375Z,99815.41
2023-04-20T05:06:31.579Z,99817.91
2023-04-20T05:08:35.102Z,99817.28
2023-04-20T05:10:38.032Z,99813.09
2023-04-20T05:12:42.424Z,99826.09
2023-04-20T05:14:45.241Z,99815.94
2023-04-20T05:16:47.960Z,99812.38
2023-04-20T05:18:53.391Z,99816.13
2023-04-20T05:20:56.780Z,99816.13
2023-04-20T05:22:59.456Z,99809.53
2023-04-20T05:25:02.193Z,99805.81
2023-04-20T05:27:07.384Z,99807.09
2023-04-20T05:29:11.095Z,99813.56
2023-04-20T05:31:13.851Z,99802.56
2023-04-20T05:33:17.056Z,99798.50
2023-04-20T05:35:20.744Z,99802.41
2023-04-20T05:37:23.352Z,99798.00
2023-04-20T05:39:26.487Z,99797.22
2023-04-20T05:41:29.471Z,99784.09
2023-04-20T05:43:32.556Z,99793.50
2023-04-20T05:45:36.517Z,99798.66
2023-04-20T05:47:39.893Z,99794.81
2023-04-20T05:49:42.602Z,99806.94
2023-04-20T05:51:45.885Z,99798.03
2023-04-20T05:53:48.492Z,99798.34
2023-04-20T05:55:51.142Z,99802.38
2023-04-20T05:57:53.709Z,99797.03
2023-04-20T05:59:56.388Z,99814.19
2023-04-20T06:01:59.088Z,99805.59
2023-04-20T06:04:01.876Z,99809.00
2023-04-20T06:06:05.125Z,99801.38
2023-04-20T06:08:07.695Z,99799.44
2023-04-20T06:10:10.638Z,99800.75
2023-04-20T06:12:13.301Z,99794.44
2023-04-20T06:14:16.095Z,99787.19
2023-04-20T06:16:19.036Z,99806.66
2023-04-20T06:18:22.179Z,99792.88
2023-04-20T06:20:25.091Z,99797.41
2023-04-20T06:22:27.701Z,99789.94
2023-04-20T06:24:30.369Z,99788.44
2023-04-20T06:26:32.951Z,99779.38
2023-04-20T06:28:36.596Z,99787.88
2023-04-20T06:30:39.351Z,99778.41
2023-04-20T06:32:42.161Z,99783.03
2023-04-20T06:34:44.822Z,99783.31
2023-04-20T06:36:47.390Z,99784.25
2023-04-20T06:38:49.938Z,99777.34
2023-04-20T06:40:52.785Z,99782.16
2023-04-20T06:42:55.595Z,99785.66
2023-04-20T06:44:58.126Z,99778.44
2023-04-20T06:47:01.043Z,99775.91
2023-04-20T06:49:03.792Z,99779.53
2023-04-20T06:51:06.572Z,99770.16
2023-04-20T06:53:09.251Z,99772.88
2023-04-20T06:55:12.028Z,99775.66
2023-04-20T06:57:14.618Z,99773.88
2023-04-20T06:59:19.111Z,99758.47
2023-04-20T07:01:22.092Z,99760.44
2023-04-20T07:03:24.937Z,99756.88
2023-04-20T07:05:29.053Z,99753.81
2023-04-20T07:07:31.661Z,99754.63
2023-04-20T07:09:34.422Z,99753.53
2023-04-20T07:11:37.192Z,99761.31
2023-04-20T07:13:39.858Z,99757.53
2023-04-20T07:15:45.297Z,99769.81
2023-04-20T07:17:47.882Z,99760.09
2023-04-20T07:19:52.642Z,99754.75
2023-04-20T07:21:55.173Z,99758.22
2023-04-20T07:23:59.173Z,99763.03
2023-04-20T07:26:01.893Z,99748.59
2023-04-20T07:28:04.664Z,99747.53
2023-04-20T07:30:09.072Z,99749.44
2023-04-20T07:32:13.923Z,99750.91
2023-04-20T07:34:17.474Z,99751.06
2023-04-20T07:36:21.824Z,99749.66
2023-04-20T07:38:24.637Z,99741.59
2023-04-20T07:40:27.286Z,99745.50
2023-04-20T07:42:29.948Z,99745.88
2023-04-20T07:44:32.496Z,99743.19
2023-04-20T07:46:35.256Z,99744.09
2023-04-20T07:48:37.820Z,99741.06
2023-04-20T07:50:40.608Z,99738.72
2023-04-20T07:52:45.183Z,99748.31
2023-04-20T07:54:48.513Z,99741.84
2023-04-20T07:56:51.269Z,99745.44
2023-04-20T07:58:53.924Z,99742.06
2023-04-20T08:00:56.661Z,99736.25
2023-04-20T08:02:59.502Z,99742.97
2023-04-20T08:05:03.665Z,99737.13
2023-04-20T08:07:08.244Z,99740.25
2023-04-20T08:09:13.065Z,99728.38
2023-04-20T08:11:16.172Z,99736.13
2023-04-20T08:13:18.801Z,99741.34
2023-04-20T08:15:21.382Z,99731.66
2023-04-20T08:17:24.054Z,99721.13
2023-04-20T08:19:26.750Z,99729.00
2023-04-20T08:21:29.489Z,99724.03
2023-04-20T08:23:32.069Z,99732.63
2023-04-20T08:25:34.801Z,99724.75
2023-04-20T08:27:37.701Z,99729.88
2023-04-20T08:29:40.510Z,99720.75
2023-04-20T08:31:43.404Z,99712.22
2023-04-20T08:33:46.695Z,99709.66
2023-04-20T08:35:52.856Z,99717.13
2023-04-20T08:37:55.607Z,99701.66
2023-04-20T08:39:58.362Z,99704.34
2023-04-20T08:42:02.317Z,99690.59
2023-04-20T08:44:05.078Z,99696.59
2023-04-20T08:46:08.013Z,99697.19
2023-04-20T08:48:11.397Z,99690.94
2023-04-20T08:50:14.310Z,99706.00
2023-04-20T08:52:16.921Z,99691.47
2023-04-20T08:54:20.054Z,99696.75
2023-04-20T08:56:37.903Z,99695.38
2023-04-20T08:58:42.648Z,99699.97
2023-04-20T09:00:49.574Z,99691.03
2023-04-20T09:02:54.786Z,99686.50
2023-04-20T09:05:05.381Z,99689.16
2023-04-20T09:07:20.536Z,99684.19
2023-04-20T09:09:24.344Z,99687.25
2023-04-20T09:11:28.675Z,99693.88
2023-04-20T09:13:33.562Z,99685.22
2023-04-20T09:15:36.488Z,99677.88
2023-04-20T09:17:42.285Z,99684.41
2023-04-20T09:19:58.421Z,99678.28
2023-04-20T09:22:06.729Z,99674.97
2023-04-20T09:24:09.532Z,99669.41
2023-04-20T09:26:19.043Z,99679.84
2023-04-20T09:28:22.332Z,99672.31
2023-04-20T09:30:26.422Z,99678.47
2023-04-20T09:32:29.414Z,99672.19
2023-04-20T09:34:44.228Z,99671.38
2023-04-20T09:36:50.520Z,99677.63
2023-04-20T09:39:11.160Z,99671.91
2023-04-20T09:41:16.998Z,99661.69
2023-04-20T09:43:22.317Z,99669.22
2023-04-20T09:45:25.899Z,99660.19
2023-04-20T09:47:30.124Z,99664.44
2023-04-20T09:49:32.971Z,99655.03
2023-04-20T09:51:38.615Z,99651.13
2023-04-20T09:53:41.712Z,99667.03
2023-04-20T09:55:48.839Z,99661.63
2023-04-20T09:57:53.833Z,99659.41
2023-04-20T09:59:57.690Z,99654.25
2023-04-20T10:02:00.437Z,99657.25
2023-04-20T10:04:09.230Z,99644.47
2023-04-20T10:06:34.639Z,99650.84
2023-04-20T10:08:42.765Z,99647.22
2023-04-20T10:10:47.540Z,99640.34
2023-04-20T10:12:58.417Z,99639.19
2023-04-20T10:15:01.597Z,99642.66
2023-04-20T10:17:09.708Z,99646.16
2023-04-20T10:19:13.315Z,99636.34
2023-04-20T10:21:15.970Z,99632.75
2023-04-20T10:23:20.180Z,99629.44
2023-04-20T10:25:27.032Z,99639.66
2023-04-20T10:27:32.330Z,99631.38
2023-04-20T10:29:36.511Z,99633.81
2023-04-20T10:31:41.880Z,99628.81
2023-04-20T10:34:16.244Z,99619.06
2023-04-20T10:36:31.274Z,99627.13
2023-04-20T10:38:35.881Z,99613.34
2023-04-20T10:40:38.967Z,99615.06
2023-04-20T10:42:45.343Z,99613.22
2023-04-20T10:44:52.440Z,99602.16
2023-04-20T10:46:56.732Z,99603.31
2023-04-20T10:49:04.254Z,99604.63
2023-04-20T10:51:10.790Z,99597.63
2023-04-20T10:53:22.129Z,99593.81
2023-04-20T10:55:26.332Z,99601.28
2023-04-20T10:57:29.002Z,99596.84
2023-04-20T10:59:31.640Z,99590.84
2023-04-20T11:01:34.375Z,99586.72
2023-04-20T11:03:37.880Z,99591.06
2023-04-20T11:05:40.806Z,99583.94
2023-04-20T11:07:53.828Z,99579.59
2023-04-20T11:09:56.866Z,99586.03
2023-04-20T11:12:02.304Z,99575.41
2023-04-20T11:14:07.727Z,99573.00
2023-04-20T11:16:13.107Z,99568.25
2023-04-20T11:18:16.099Z,99575.22
2023-04-20T11:20:18.961Z,99567.91
2023-04-20T11:22:23.586Z,99561.53
2023-04-20T11:24:31.244Z,99560.63
2023-04-20T11:26:43.634Z,99557.19
2023-04-20T11:28:56.038Z,99557.34
2023-04-20T11:30:59.558Z,99564.47
2023-04-20T11:33:02.311Z,99554.88
2023-04-20T11:35:08.175Z,99555.47
2023-04-20T11:37:13.934Z,99548.75
2023-04-20T11:39:29.970Z,99543.78
2023-04-20T11:41:32.557Z,99543.97
2023-04-20T11:43:37.959Z,99538.22
2023-04-20T11:45:41.719Z,99530.13
2023-04-20T11:47:45.865Z,99534.13
2023-04-20T11:49:48.473Z,99530.38
2023-04-20T11:51:51.459Z,99531.69
2023-04-20T11:53:54.619Z,99525.41
2023-04-20T11:55:57.144Z,99527.56
2023-04-20T11:57:59.767Z,99521.38
2023-04-20T12:00:02.349Z,99531.28
2023-04-20T12:02:09.718Z,99528.09
2023-04-20T12:04:12.612Z,99531.53
2023-04-20T12:06:15.567Z,99518.53
2023-04-20T12:08:19.089Z,99521.38
2023-04-20T12:10:22.295Z,99514.03
2023-04-20T12:12:26.761Z,99516.78
2023-04-20T12:14:29.409Z,99502.19
2023-04-20T12:16:32.288Z,99511.56
2023-04-20T12:18:35.118Z,99496.28
2023-04-20T12:20:37.941Z,99505.47
2023-04-20T12:22:41.079Z,99503.91
2023-04-20T12:24:43.791Z,99498.66
2023-04-20T12:26:47.361Z,99502.88
2023-04-20T12:28:50.093Z,99496.53
2023-04-20T12:30:52.835Z,99489.78
2023-04-20T12:32:56.002Z,99498.84
2023-04-20T12:34:59.409Z,99495.97
2023-04-20T12:37:02.316Z,99493.31
2023-04-20T12:39:04.969Z,99487.72
2023-04-20T12:41:07.556Z,99486.91
2023-04-20T12:43:10.186Z,99482.94
2023-04-20T12:47:15.411Z,99483.00
2023-04-20T12:49:19.281Z,99477.91
2023-04-20T12:51:22.557Z,99482.84
2023-04-20T12:53:25.494Z,99472.91
2023-04-20T12:55:28.525Z,99467.94
2023-04-20T12:57:31.306Z,99470.09
2023-04-20T12:59:34.152Z,99469.00
2023-04-20T13:01:37.723Z,99463.78
2023-04-20T13:03:42.824Z,99466.69
2023-04-20T13:05:45.955Z,99466.84
2023-04-20T13:07:48.818Z,99462.47
2023-04-20T13:09:52.160Z,99460.41
2023-04-20T13:11:55.228Z,99469.31
2023-04-20T13:13:58.381Z,99466.38
2023-04-20T13:16:01.442Z,99458.47
2023-04-20T13:18:05.377Z,99458.69
2023-04-20T13:20:09.406Z,99452.09
2023-04-20T13:22:14.592Z,99446.16
2023-04-20T13:24:19.508Z,99450.53
2023-04-20T13:26:22.695Z,99455.84
2023-04-20T13:28:25.858Z,99450.59
2023-04-20T13:30:28.908Z,99457.03
2023-04-20T13:32:32.598Z,99450.69
2023-04-20T13:34:35.500Z,99447.47
2023-04-20T13:36:38.057Z,99443.81
2023-04-20T13:38:40.590Z,99440.84
2023-04-20T13:40:44.662Z,99430.75
2023-04-20T13:42:47.169Z,99437.28
2023-04-20T13:44:49.905Z,99440.94
2023-04-20T13:46:52.517Z,99436.00
2023-04-20T13:48:55.191Z,99436.31
2023-04-20T13:50:58.172Z,99431.06
2023-04-20T13:53:03.251Z,99439.44
2023-04-20T13:55:06.287Z,99433.50
2023-04-20T13:57:09.166Z,99432.47
2023-04-20T13:59:12.993Z,99433.13
2023-04-20T14:01:16.801Z,99426.34
2023-04-20T14:03:20.407Z,99425.88
2023-04-20T14:05:23.331Z,99425.38
2023-04-20T14:07:25.969Z,99419.53
2023-04-20T14:09:31.038Z,99422.97
2023-04-20T14:11:34.450Z,99421.69
2023-04-20T14:13:38.244Z,99423.00
2023-04-20T14:15:41.636Z,99412.78
2023-04-20T14:17:44.318Z,99397.63
2023-04-20T14:19:47.119Z,99412.13
2023-04-20T14:21:50.131Z,99403.25
2023-04-20T14:23:53.704Z,99406.63
2023-04-20T14:25:56.969Z,99400.13
2023-04-20T14:27:59.568Z,99402.28
2023-04-20T14:30:02.807Z,99400.09
2023-04-20T14:32:08.126Z,99397.97
2023-04-20T14:34:12.847Z,99395.88
2023-04-20T14:36:15.590Z,99398.97
2023-04-20T14:38:18.511Z,99392.53
2023-04-20T14:40:21.465Z,99389.63
2023-04-20T14:42:24.310Z,99397.19
2023-04-20T14:44:27.275Z,99393.91
2023-04-20T14:46:30.246Z,99392.88
2023-04-20T14:48:33.008Z,99395.88
2023-04-20T14:50:35.835Z,99395.31
2023-04-20T14:52:38.522Z,99389.75
2023-04-20T14:54:41.071Z,99389.13
2023-04-20T14:56:43.641Z,99396.88
2023-04-20T14:58:48.085Z,99387.59
2023-04-20T15:00:52.119Z,99396.75
2023-04-20T15:02:56.972Z,99387.03
2023-04-20T15:05:00.065Z,99391.69
2023-04-20T15:07:04.192Z,99395.53
2023-04-20T15:09:07.499Z,99390.63
2023-04-20T15:11:10.376Z,99389.97
2023-04-20T15:13:13.419Z,99396.44
2023-04-20T15:15:17.205Z,99399.47
2023-04-20T15:17:20.017Z,99395.19
2023-04-20T15:19:25.573Z,99395.69
2023-04-20T15:21:28.699Z,99398.22
2023-04-20T15:23:31.451Z,99394.34
2023-04-20T15:25:34.041Z,99399.56
2023-04-20T15:27:37.059Z,99397.53
2023-04-20T15:29:39.675Z,99401.31
2023-04-20T15:31:43.619Z,99400.38
2023-04-20T15:33:48.124Z,99396.50
2023-04-20T15:35:50.947Z,99402.97
2023-04-20T15:37:53.522Z,99402.81
2023-04-20T15:39:56.259Z,99404.63
2023-04-20T15:41:59.388Z,99396.06
2023-04-20T15:44:02.341Z,99392.84
2023-04-20T15:46:05.312Z,99410.50
2023-04-20T15:48:09.450Z,99406.47
2023-04-20T15:50:12.682Z,99398.50
2023-04-20T15:52:15.603Z,99398.50
2023-04-20T15:54:23.582Z,99399.25
2023-04-20T15:56:26.556Z,99398.69
2023-04-20T15:58:29.176Z,99400.47
2023-04-20T16:00:34.843Z,99396.06
2023-04-20T16:02:41.827Z,99389.66
2023-04-20T16:04:45.032Z,99391.19
2023-04-20T16:06:47.835Z,99394.03
2023-04-20T16:08:54.055Z,99393.69
2023-04-20T16:10:56.663Z,99387.41
2023-04-20T16:12:59.420Z,99385.38
2023-04-20T16:15:03.904Z,99396.72
2023-04-20T16:17:09.106Z,99389.13
2023-04-20T16:19:13.523Z,99394.19
2023-04-20T16:21:16.161Z,99399.94
2023-04-20T16:23:18.896Z,99399.03
2023-04-20T16:25:24.388Z,99402.69
2023-04-20T16:27:27.643Z,99405.56
2023-04-20T16:29:30.300Z,99402.16
2023-04-20T16:31:32.932Z,99414.47
2023-04-20T16:33:37.050Z,99416.69
2023-04-20T16:35:40.235Z,99423.84
2023-04-20T16:37:42.858Z,99439.38
2023-04-20T16:39:53.952Z,99435.91
2023-04-20T16:41:57.339Z,99451.91
2023-04-20T16:43:59.972Z,99468.97
2023-04-20T16:46:02.485Z,99466.47
2023-04-20T16:48:05.269Z,99472.75
2023-04-20T16:50:09.288Z,99487.97
2023-04-20T16:52:12.465Z,99504.41
2023-04-20T16:54:15.118Z,99498.22
2023-04-20T16:56:17.650Z,99488.84
2023-04-20T16:58:20.491Z,99471.97
2023-04-20T17:00:23.150Z,99454.63
2023-04-20T17:02:31.619Z,99427.69
2023-04-20T17:04:34.883Z,99424.88
2023-04-20T17:06:37.395Z,99430.19
2023-04-20T17:08:40.311Z,99434.84
2023-04-20T17:10:43.482Z,99437.13
2023-04-20T17:12:46.607Z,99438.25
2023-04-20T17:14:50.005Z,99435.38
2023-04-20T17:16:54.396Z,99426.00
2023-04-20T17:18:57.066Z,99417.47
2023-04-20T17:21:02.362Z,99411.88
2023-04-20T17:23:05.099Z,99410.81
2023-04-20T17:25:09.124Z,99415.03
2023-04-20T17:27:12.331Z,99404.03
2023-04-20T17:29:15.059Z,99410.22
2023-04-20T17:31:17.889Z,99410.81
2023-04-20T17:33:21.426Z,99408.19
2023-04-20T17:35:24.244Z,99424.69
2023-04-20T17:37:27.837Z,99425.69
2023-04-20T17:39:30.580Z,99423.97
2023-04-20T17:41:35.770Z,99427.34
2023-04-20T17:43:40.650Z,99422.81
2023-04-20T17:45:43.417Z,99426.72
2023-04-20T17:47:46.254Z,99423.19
2023-04-20T17:49:49.213Z,99433.19
2023-04-20T17:51:51.847Z,99419.88
2023-04-20T17:53:54.819Z,99426.53
2023-04-20T17:55:57.869Z,99423.63
2023-04-20T17:58:00.559Z,99415.84
2023-04-20T18:00:05.226Z,99420.22
2023-04-20T18:02:09.440Z,99410.81
2023-04-20T18:04:12.443Z,99408.06
2023-04-20T18:06:15.232Z,99411.28
2023-04-20T18:08:20.579Z,99403.53
2023-04-20T18:10:23.125Z,99396.09
2023-04-20T18:12:25.699Z,99395.94
2023-04-20T18:14:28.437Z,99395.16
2023-04-20T18:16:31.196Z,99394.41
2023-04-20T18:18:38.037Z,99387.63
2023-04-20T18:20:40.811Z,99380.84
2023-04-20T18:22:43.336Z,99374.06
2023-04-20T18:24:46.024Z,99371.63
2023-04-20T18:26:48.726Z,99370.34
2023-04-20T18:28:51.878Z,99369.56
2023-04-20T18:30:56.445Z,99371.16
2023-04-20T18:33:00.311Z,99363.22
2023-04-20T18:35:04.141Z,99360.81
2023-04-20T18:37:07.622Z,99370.34
2023-04-20T18:39:10.615Z,99377.81
2023-04-20T18:41:13.572Z,99356.59
2023-04-20T18:43:16.172Z,99363.38
2023-04-20T18:45:48.779Z,99360.31
2023-04-20T18:48:03.265Z,99356.72
2023-04-20T18:50:06.748Z,99361.22
2023-04-20T18:52:09.427Z,99366.09
2023-04-20T18:54:12.092Z,99350.38
2023-04-20T18:56:14.690Z,99352.59
2023-04-20T18:58:17.257Z,99351.78
2023-04-20T19:00:20.300Z,99357.75
2023-04-20T19:02:23.377Z,99363.25
2023-04-20T19:04:26.339Z,99361.34
2023-04-20T19:06:29.181Z,99362.94
2023-04-20T19:08:32.476Z,99356.97
2023-04-20T19:10:35.103Z,99347.91
2023-04-20T19:12:38.644Z,99352.59
2023-04-20T19:14:41.336Z,99336.91
2023-04-20T19:16:43.938Z,99351.13
2023-04-20T19:18:48.560Z,99351.94
2023-04-20T19:20:51.270Z,99347.59
2023-04-20T19:22:53.936Z,99349.97
2023-04-20T19:24:56.517Z,99351.13
2023-04-20T19:26:59.372Z,99348.03
2023-04-20T19:29:01.975Z,99355.63
2023-04-20T19:31:05.554Z,99340.59
2023-04-20T19:33:08.425Z,99345.75
2023-04-20T19:35:11.153Z,99343.16
2023-04-20T19:37:13.901Z,99348.19
2023-04-20T19:39:16.423Z,99345.09
2023-04-20T19:41:19.075Z,99343.94
2023-04-20T19:43:21.721Z,99347.50
2023-04-20T19:45:24.377Z,99340.41
2023-04-20T19:47:27.514Z,99331.66
2023-04-20T19:49:30.201Z,99341.19
2023-04-20T19:51:33.318Z,99335.69
2023-04-20T19:53:36.829Z,99326.16
2023-04-20T19:55:39.504Z,99329.72
2023-04-20T19:57:42.118Z,99330.88
2023-04-20T19:59:44.800Z,99331.19
2023-04-20T20:01:48.879Z,99336.69
2023-04-20T20:03:53.815Z,99335.53
2023-04-20T20:05:57.026Z,99345.44
2023-04-20T20:07:59.615Z,99353.38
2023-04-20T20:10:03.933Z,99353.81
2023-04-20T20:12:10.908Z,99353.22
2023-04-20T20:14:13.553Z,99339.13
2023-04-20T20:16:16.542Z,99346.88
2023-04-20T20:18:20.591Z,99349.16
2023-04-20T20:20:23.278Z,99352.75
2023-04-20T20:22:25.936Z,99340.81
2023-04-20T20:24:28.558Z,99355.69
2023-04-20T20:26:31.249Z,99341.13
2023-04-20T20:28:33.912Z,99346.94
2023-04-20T20:30:36.593Z,99348.56
2023-04-20T20:32:39.474Z,99354.41
2023-04-20T20:34:42.884Z,99349.88
2023-04-20T20:36:46.492Z,99351.88
2023-04-20T20:38:49.025Z,99354.63
2023-04-20T20:40:53.588Z,99349.47
2023-04-20T20:42:56.940Z,99355.59
2023-04-20T20:45:01.224Z,99347.72
2023-04-20T20:47:07.165Z,99344.28
2023-04-20T20:49:09.904Z,99352.53
2023-04-20T20:51:12.956Z,99346.91
2023-04-20T20:53:17.621Z,99347.72
2023-04-20T20:55:20.169Z,99347.53
2023-04-20T20:57:22.695Z,99345.16
2023-04-20T20:59:25.223Z,99333.97
2023-04-20T21:01:27.984Z,99330.63
2023-04-20T21:03:31.485Z,99337.41
2023-04-20T21:05:35.691Z,99331.75
2023-04-20T21:07:39.027Z,99337.25
2023-04-20T21:09:41.729Z,99331.25
2023-04-20T21:11:44.522Z,99325.94
2023-04-20T21:13:47.685Z,99323.88
2023-04-20T21:15:50.357Z,99325.97
2023-04-20T21:17:53.004Z,99322.91
2023-04-20T21:19:55.782Z,99318.41
2023-04-20T21:21:58.492Z,99322.47
2023-04-20T21:24:01.203Z,99307.28
2023-04-20T21:26:03.871Z,99313.28
2023-04-20T21:28:06.432Z,99304.06
2023-04-20T21:30:09.614Z,99307.78
2023-04-20T21:32:12.278Z,99311.50
2023-04-20T21:34:14.976Z,99308.94
2023-04-20T21:36:17.605Z,99309.94
2023-04-20T21:38:20.141Z,99299.91
2023-04-20T21:40:25.302Z,99307.22
2023-04-20T21:42:27.967Z,99298.31
2023-04-20T21:44:30.501Z,99304.75
2023-04-20T21:46:33.376Z,99297.00
2023-04-20T21:48:36.352Z,99298.47
2023-04-20T21:50:38.952Z,99291.72
2023-04-20T21:52:41.576Z,99291.53
2023-04-20T21:54:44.130Z,99295.09
2023-04-20T21:56:47.155Z,99298.63
2023-04-20T21:58:49.851Z,99297.03
2023-04-20T22:00:52.500Z,99299.78
2023-04-20T22:02:55.273Z,99290.56
2023-04-20T22:04:58.152Z,99300.75
2023-04-20T22:07:00.898Z,99292.00
2023-04-20T22:09:04.769Z,99299.13
2023-04-20T22:11:07.897Z,99296.69
2023-04-20T22:13:10.749Z,99295.72
2023-04-20T22:15:14.475Z,99293.63
2023-04-20T22:17:17.898Z,99291.38
2023-04-20T22:19:21.328Z,99289.13
2023-04-20T22:21:23.882Z,99285.88
2023-04-20T22:23:26.601Z,99287.97
2023-04-20T22:25:29.204Z,99286.84
2023-04-20T22:27:33.274Z,99293.16
2023-04-20T22:29:35.930Z,99289.91
2023-04-20T22:31:38.518Z,99281.84
2023-04-20T22:33:41.168Z,99279.59
2023-04-20T22:35:43.797Z,99284.13
2023-04-20T22:37:48.327Z,99285.22
2023-04-20T22:39:50.921Z,99283.63
2023-04-20T22:41:53.477Z,99277.00
2023-04-20T22:43:56.072Z,99281.53
2023-04-20T22:45:58.737Z,99280.72
2023-04-20T22:48:01.809Z,99272.00
2023-04-20T22:50:06.132Z,99282.19
2023-04-20T22:52:08.894Z,99280.41
2023-04-20T22:54:11.819Z,99284.78
2023-04-20T22:56:14.442Z,99275.22
2023-04-20T22:58:17.058Z,99275.72
2023-04-20T23:00:19.768Z,99275.53
2023-04-20T23:02:22.468Z,99276.00
2023-04-20T23:04:25.231Z,99284.53
2023-04-20T23:06:29.810Z,99279.19
2023-04-20T23:08:33.613Z,99282.09
2023-04-20T23:10:36.389Z,99278.84
2023-04-20T23:12:38.915Z,99284.03
2023-04-20T23:14:44.421Z,99273.84
2023-04-20T23:16:47.111Z,99275.16
2023-04-20T23:18:49.610Z,99270.00
2023-04-20T23:20:52.208Z,99265.13
2023-04-20T23:22:54.825Z,99264.03
2023-04-20T23:24:57.544Z,99249.84
2023-04-20T23:27:00.435Z,99251.44
2023-04-20T23:29:02.945Z,99253.69
2023-04-20T23:31:05.562Z,99242.41
2023-04-20T23:33:08.358Z,99241.44
2023-04-20T23:35:11.054Z,99246.06
2023-04-20T23:37:13.599Z,99236.88
2023-04-20T23:39:16.572Z,99240.50
2023-04-20T23:41:19.814Z,99236.78
2023-04-20T23:43:22.361Z,99237.03
2023-04-20T23:45:24.957Z,99236.22
2023-04-20T23:47:27.600Z,99226.81
2023-04-20T23:49:30.208Z,99226.41
2023-04-20T23:51:32.800Z,99225.56
2023-04-20T23:53:37.500Z,99223.31
2023-04-20T23:55:40.116Z,99226.69
2023-04-20T23:57:42.721Z,99227.13
2023-04-20T23:59:45.382Z,99215.69
